Time;durP1;ratioP1;P1;durP2;ratioP2;P2;SDS_P1;SDS_P2;PMS_P1;PMS_P2;Temp;Humidity;BMP_temperature;BMP_pressure;BME280_temperature;BME280_humidity;BME280_pressure;Samples;Min_cycle;Max_cycle;Signal;HPM_P1;HPM_P2
2023/06/06 00:00:20;;;;;;;9.95;7.43;;;;;;;;;;5112558;28;20067;-84
2023/06/06 00:02:50;;;;;;;9.45;7.20;;;;;;;;;;5112205;28;20059;-85
2023/06/06 00:05:21;;;;;;;7.72;6.88;;;;;;;;;;5109665;28;20150;-85
2023/06/06 00:07:49;;;;;;;8.63;7.28;;;;;;;;;;5110922;28;20043;-85
2023/06/06 00:10:16;;;;;;;7.25;6.45;;;;;;;;;;5111370;28;20051;-85
2023/06/06 00:12:45;;;;;;;9.48;7.32;;;;;;;;;;5111234;28;20100;-85
2023/06/06 00:15:13;;;;;;;8.70;6.47;;;;;;;;;;5111452;28;20109;-85
2023/06/06 00:17:42;;;;;;;8.15;7.38;;;;;;;;;;5111264;28;20522;-85
2023/06/06 00:20:11;;;;;;;8.88;7.38;;;;;;;;;;5112562;28;20459;-84
2023/06/06 00:22:39;;;;;;;10.18;7.75;;;;;;;;;;5112054;28;20047;-85
2023/06/06 00:25:07;;;;;;;9.02;7.05;;;;;;;;;;5112261;28;20047;-85
2023/06/06 00:27:35;;;;;;;8.32;7.50;;;;;;;;;;5111958;28;20385;-85
2023/06/06 00:30:04;;;;;;;8.25;7.35;;;;;;;;;;5112225;28;20047;-85
2023/06/06 00:32:31;;;;;;;8.25;7.45;;;;;;;;;;5111791;28;20108;-85
2023/06/06 00:34:59;;;;;;;12.10;7.18;;;;;;;;;;5117425;28;20503;-85
2023/06/06 00:37:26;;;;;;;10.35;7.97;;;;;;;;;;5116449;28;20102;-85
2023/06/06 00:39:53;;;;;;;10.30;7.15;;;;;;;;;;5116209;28;20055;-85
2023/06/06 00:42:20;;;;;;;8.25;7.45;;;;;;;;;;5116149;28;20096;-85
2023/06/06 00:44:48;;;;;;;11.95;7.57;;;;;;;;;;5117368;28;20048;-85
2023/06/06 00:47:15;;;;;;;7.38;6.68;;;;;;;;;;5116087;28;20101;-85
2023/06/06 00:49:46;;;;;;;13.10;8.35;;;;;;;;;;5116093;28;20052;-85
2023/06/06 00:52:13;;;;;;;10.40;8.40;;;;;;;;;;5115662;28;20047;-85
2023/06/06 00:54:43;;;;;;;10.65;8.25;;;;;;;;;;5115854;28;20392;-85
2023/06/06 00:57:11;;;;;;;10.82;8.32;;;;;;;;;;5115966;28;20101;-85
2023/06/06 00:59:39;;;;;;;8.75;7.82;;;;;;;;;;5116993;27;20078;-85
2023/06/06 01:02:09;;;;;;;11.25;8.63;;;;;;;;;;5119982;28;20048;-85
2023/06/06 01:04:40;;;;;;;12.63;8.95;;;;;;;;;;5128914;28;20044;-84
2023/06/06 01:07:09;;;;;;;10.70;7.90;;;;;;;;;;5117129;28;20492;-84
2023/06/06 01:09:37;;;;;;;13.95;8.30;;;;;;;;;;5115187;28;20048;-85
2023/06/06 01:12:06;;;;;;;9.80;7.93;;;;;;;;;;5115421;28;20047;-84
2023/06/06 01:14:52;;;;;;;12.80;8.10;;;;;;;;;;5115477;28;20048;-84
2023/06/06 01:17:21;;;;;;;10.75;9.63;;;;;;;;;;5115663;28;20067;-84
2023/06/06 01:19:49;;;;;;;9.45;8.57;;;;;;;;;;5116733;28;20079;-86
2023/06/06 01:22:22;;;;;;;11.23;8.80;;;;;;;;;;5115529;28;20058;-84
2023/06/06 01:24:53;;;;;;;9.02;7.47;;;;;;;;;;5116747;28;20085;-85
2023/06/06 01:27:21;;;;;;;9.82;8.57;;;;;;;;;;5115407;28;20044;-85
2023/06/06 01:29:49;;;;;;;9.48;8.35;;;;;;;;;;5116438;28;20059;-85
2023/06/06 01:32:22;;;;;;;9.43;8.40;;;;;;;;;;5114851;28;20062;-85
2023/06/06 01:34:55;;;;;;;11.52;8.93;;;;;;;;;;5115161;28;20525;-85
2023/06/06 01:37:38;;;;;;;9.07;8.15;;;;;;;;;;5115561;28;20047;-85
2023/06/06 01:40:07;;;;;;;9.00;8.10;;;;;;;;;;5115217;28;20104;-85
2023/06/06 01:42:39;;;;;;;10.30;9.20;;;;;;;;;;5116221;28;20043;-84
2023/06/06 01:45:07;;;;;;;9.50;8.50;;;;;;;;;;5114344;28;20116;-85
2023/06/06 01:47:35;;;;;;;12.27;9.35;;;;;;;;;;5115964;28;20114;-85
2023/06/06 01:50:03;;;;;;;10.40;9.32;;;;;;;;;;5116063;28;20100;-85
2023/06/06 01:52:33;;;;;;;11.30;9.50;;;;;;;;;;5115872;28;20047;-85
2023/06/06 01:55:01;;;;;;;10.57;8.98;;;;;;;;;;5114988;28;20453;-85
2023/06/06 01:57:28;;;;;;;13.57;9.23;;;;;;;;;;5115872;28;20055;-85
2023/06/06 01:59:56;;;;;;;10.85;9.18;;;;;;;;;;5114803;28;20134;-84
2023/06/06 02:02:23;;;;;;;12.15;9.60;;;;;;;;;;5115778;27;20044;-85
2023/06/06 02:04:50;;;;;;;11.38;9.90;;;;;;;;;;5114347;28;20506;-84
2023/06/06 02:07:17;;;;;;;11.60;9.82;;;;;;;;;;5114482;28;20093;-83
2023/06/06 02:09:45;;;;;;;11.80;9.65;;;;;;;;;;5114134;28;20047;-84
2023/06/06 02:12:12;;;;;;;10.85;9.70;;;;;;;;;;5115431;28;20044;-84
2023/06/06 02:14:41;;;;;;;10.82;8.65;;;;;;;;;;5114147;28;20047;-84
2023/06/06 02:17:08;;;;;;;9.88;8.82;;;;;;;;;;5116151;28;20052;-85
2023/06/06 02:19:35;;;;;;;11.18;9.40;;;;;;;;;;5127986;28;20043;-84
2023/06/06 02:22:02;;;;;;;10.70;9.40;;;;;;;;;;5113927;28;20051;-85
2023/06/06 02:24:30;;;;;;;12.57;10.07;;;;;;;;;;5114137;28;20052;-84
2023/06/06 02:26:57;;;;;;;12.13;10.13;;;;;;;;;;5115110;28;20534;-85
2023/06/06 02:29:25;;;;;;;12.98;10.30;;;;;;;;;;5114920;28;20078;-85
2023/06/06 02:31:53;;;;;;;12.10;10.40;;;;;;;;;;5113443;28;20056;-84
2023/06/06 02:34:21;;;;;;;13.23;10.88;;;;;;;;;;5115076;28;20048;-85
2023/06/06 02:36:49;;;;;;;17.52;11.10;;;;;;;;;;5115052;28;20437;-85
2023/06/06 02:39:16;;;;;;;11.63;10.02;;;;;;;;;;5114799;28;20135;-84
2023/06/06 02:41:43;;;;;;;13.27;10.13;;;;;;;;;;5113598;28;20108;-84
2023/06/06 02:44:11;;;;;;;10.85;9.65;;;;;;;;;;5114920;28;20073;-85
2023/06/06 02:46:38;;;;;;;10.98;9.13;;;;;;;;;;5113127;28;20047;-84
2023/06/06 02:49:05;;;;;;;10.70;9.55;;;;;;;;;;5113081;28;20567;-85
2023/06/06 02:51:33;;;;;;;11.63;10.40;;;;;;;;;;5113237;28;20105;-85
2023/06/06 02:54:00;;;;;;;10.85;9.75;;;;;;;;;;5113712;28;20074;-85
2023/06/06 02:56:27;;;;;;;14.88;10.82;;;;;;;;;;5112620;28;20047;-85
2023/06/06 02:58:54;;;;;;;12.35;11.02;;;;;;;;;;5114752;28;20082;-85
2023/06/06 03:01:22;;;;;;;13.90;10.15;;;;;;;;;;5113451;28;20043;-85
2023/06/06 03:03:49;;;;;;;12.95;10.15;;;;;;;;;;5114554;28;20157;-85
2023/06/06 03:06:16;;;;;;;13.68;10.68;;;;;;;;;;5113217;28;20043;-85
2023/06/06 03:08:44;;;;;;;11.88;9.98;;;;;;;;;;5114303;28;20051;-85
2023/06/06 03:11:12;;;;;;;11.02;9.93;;;;;;;;;;5113458;28;20052;-86
2023/06/06 03:13:40;;;;;;;12.30;10.18;;;;;;;;;;5113141;28;20071;-85
2023/06/06 03:16:07;;;;;;;11.75;9.85;;;;;;;;;;5113267;28;20483;-84
2023/06/06 03:18:36;;;;;;;15.57;10.45;;;;;;;;;;5114321;28;20051;-85
2023/06/06 03:21:04;;;;;;;12.82;10.20;;;;;;;;;;5114364;28;20487;-85
2023/06/06 03:23:31;;;;;;;13.75;9.80;;;;;;;;;;5114203;28;20048;-85
2023/06/06 03:25:58;;;;;;;13.25;9.80;;;;;;;;;;5112885;28;20054;-85
2023/06/06 03:28:25;;;;;;;14.43;10.45;;;;;;;;;;5113595;28;20097;-85
2023/06/06 03:30:54;;;;;;;10.95;9.80;;;;;;;;;;5112939;28;20440;-84
2023/06/06 03:33:22;;;;;;;11.60;10.05;;;;;;;;;;5123750;28;20043;-86
2023/06/06 03:35:49;;;;;;;10.55;9.45;;;;;;;;;;5119387;28;20159;-85
2023/06/06 03:38:16;;;;;;;12.20;10.27;;;;;;;;;;5114027;28;20043;-85
2023/06/06 03:40:43;;;;;;;10.15;9.15;;;;;;;;;;5112481;28;20063;-85
2023/06/06 03:43:11;;;;;;;10.50;9.27;;;;;;;;;;5113885;28;20484;-85
2023/06/06 03:45:38;;;;;;;10.10;9.10;;;;;;;;;;5112590;28;20089;-85
2023/06/06 03:48:06;;;;;;;13.00;8.40;;;;;;;;;;5111645;28;20098;-85
2023/06/06 03:50:33;;;;;;;9.82;8.85;;;;;;;;;;5112192;28;20134;-85
2023/06/06 03:53:01;;;;;;;10.80;8.93;;;;;;;;;;5112509;28;20545;-85
2023/06/06 03:55:37;;;;;;;9.85;8.88;;;;;;;;;;5112514;28;20059;-85
2023/06/06 03:58:05;;;;;;;9.23;8.32;;;;;;;;;;5113577;28;20465;-85
2023/06/06 04:00:32;;;;;;;9.63;8.40;;;;;;;;;;5112100;28;20461;-85
2023/06/06 04:03:00;;;;;;;10.52;7.75;;;;;;;;;;5112555;28;20044;-85
2023/06/06 04:05:27;;;;;;;18.08;8.70;;;;;;;;;;5113572;28;20070;-85
2023/06/06 04:07:54;;;;;;;10.82;8.07;;;;;;;;;;5111816;28;20116;-85
2023/06/06 04:10:22;;;;;;;11.52;8.23;;;;;;;;;;5111973;28;20051;-84
2023/06/06 04:12:49;;;;;;;10.77;9.38;;;;;;;;;;5113147;28;20043;-85
2023/06/06 04:15:16;;;;;;;10.40;8.73;;;;;;;;;;5113487;28;20087;-84
2023/06/06 04:17:45;;;;;;;8.75;7.88;;;;;;;;;;5113303;28;20050;-85
2023/06/06 04:20:12;;;;;;;13.32;7.88;;;;;;;;;;5113324;28;20086;-85
2023/06/06 04:22:41;;;;;;;9.20;7.50;;;;;;;;;;5111885;28;20075;-85
2023/06/06 04:25:08;;;;;;;9.88;7.70;;;;;;;;;;5112101;28;20062;-85
2023/06/06 04:27:37;;;;;;;9.52;7.75;;;;;;;;;;5113189;28;20098;-85
2023/06/06 04:30:05;;;;;;;9.30;7.72;;;;;;;;;;5112005;28;20069;-85
2023/06/06 04:32:33;;;;;;;8.43;7.18;;;;;;;;;;5111729;28;20060;-85
2023/06/06 04:35:00;;;;;;;9.07;8.18;;;;;;;;;;5112927;28;20090;-85
2023/06/06 04:37:32;;;;;;;8.82;7.88;;;;;;;;;;5112230;28;20043;-85
2023/06/06 04:40:00;;;;;;;10.60;8.02;;;;;;;;;;5112128;28;20047;-84
2023/06/06 04:42:32;;;;;;;7.88;6.93;;;;;;;;;;5111760;28;20105;-85
2023/06/06 04:45:02;;;;;;;10.57;7.47;;;;;;;;;;5112175;28;20043;-84
2023/06/06 04:47:31;;;;;;;13.43;7.72;;;;;;;;;;5113924;28;20047;-85
2023/06/06 04:49:59;;;;;;;8.60;7.22;;;;;;;;;;5127519;28;20108;-85
2023/06/06 04:52:28;;;;;;;9.27;7.40;;;;;;;;;;5111576;28;20381;-85
2023/06/06 04:54:55;;;;;;;7.45;6.85;;;;;;;;;;5111634;28;20756;-85
2023/06/06 04:57:23;;;;;;;7.75;6.60;;;;;;;;;;5111792;28;20564;-84
2023/06/06 04:59:51;;;;;;;13.52;7.40;;;;;;;;;;5111616;28;20108;-85
2023/06/06 05:02:20;;;;;;;11.70;7.05;;;;;;;;;;5111638;28;20053;-85
2023/06/06 05:04:49;;;;;;;8.88;7.35;;;;;;;;;;5112406;28;20494;-85
2023/06/06 05:07:16;;;;;;;8.07;6.97;;;;;;;;;;5111616;28;20047;-85
2023/06/06 05:09:43;;;;;;;6.78;6.13;;;;;;;;;;5111541;28;20468;-85
2023/06/06 05:12:10;;;;;;;7.57;6.50;;;;;;;;;;5112505;28;20449;-84
2023/06/06 05:14:38;;;;;;;7.50;6.20;;;;;;;;;;5112863;28;20047;-86
2023/06/06 05:17:05;;;;;;;7.72;6.43;;;;;;;;;;5113010;28;20039;-85
2023/06/06 05:19:34;;;;;;;6.88;6.28;;;;;;;;;;5113230;28;20059;-85
2023/06/06 05:22:02;;;;;;;7.15;6.32;;;;;;;;;;5115454;28;20171;-85
2023/06/06 05:24:29;;;;;;;6.72;6.18;;;;;;;;;;5115544;28;20044;-86
2023/06/06 05:26:57;;;;;;;8.50;6.22;;;;;;;;;;5115294;28;20503;-85
2023/06/06 05:29:26;;;;;;;7.20;6.47;;;;;;;;;;5115344;28;20097;-84
2023/06/06 05:31:53;;;;;;;8.68;6.53;;;;;;;;;;5115957;28;20108;-85
2023/06/06 05:34:21;;;;;;;12.75;6.32;;;;;;;;;;5115388;28;20048;-85
2023/06/06 05:36:48;;;;;;;27.67;7.32;;;;;;;;;;5115281;28;20076;-85
2023/06/06 05:39:15;;;;;;;13.70;6.93;;;;;;;;;;5115395;28;20051;-85
2023/06/06 05:41:51;;;;;;;9.88;6.32;;;;;;;;;;5114789;28;20407;-85
2023/06/06 05:44:18;;;;;;;11.10;6.47;;;;;;;;;;5115375;28;20051;-85
2023/06/06 05:46:47;;;;;;;19.70;8.02;;;;;;;;;;5116054;27;20097;-84
2023/06/06 05:49:15;;;;;;;16.85;6.80;;;;;;;;;;5116812;28;20085;-85
2023/06/06 05:51:42;;;;;;;15.45;7.53;;;;;;;;;;5114508;28;20051;-85
2023/06/06 05:54:13;;;;;;;13.30;8.23;;;;;;;;;;5115892;27;20516;-85
2023/06/06 05:56:43;;;;;;;23.95;7.97;;;;;;;;;;5114654;28;20413;-85
2023/06/06 05:59:10;;;;;;;15.95;7.88;;;;;;;;;;5114301;28;20071;-84
2023/06/06 06:01:39;;;;;;;17.85;7.50;;;;;;;;;;5115735;28;20097;-83
2023/06/06 06:04:07;;;;;;;15.38;8.13;;;;;;;;;;5122549;28;20040;-83
2023/06/06 06:06:37;;;;;;;12.25;7.93;;;;;;;;;;5117433;28;20093;-83
2023/06/06 06:09:05;;;;;;;11.57;7.78;;;;;;;;;;5115198;28;20047;-84
2023/06/06 06:11:33;;;;;;;16.35;8.40;;;;;;;;;;5113782;28;20100;-84
2023/06/06 06:14:00;;;;;;;13.00;8.32;;;;;;;;;;5115239;28;20055;-83
2023/06/06 06:16:27;;;;;;;14.25;8.48;;;;;;;;;;5114991;28;20048;-83
2023/06/06 06:18:55;;;;;;;15.75;8.55;;;;;;;;;;5113648;28;20100;-84
2023/06/06 06:21:24;;;;;;;14.68;9.55;;;;;;;;;;5113762;28;20180;-84
2023/06/06 06:23:52;;;;;;;11.23;8.57;;;;;;;;;;5115093;28;20047;-85
2023/06/06 06:26:19;;;;;;;12.48;9.35;;;;;;;;;;5113884;28;20104;-84
2023/06/06 06:28:46;;;;;;;10.93;8.77;;;;;;;;;;5114965;28;20043;-84
2023/06/06 06:31:14;;;;;;;12.73;9.20;;;;;;;;;;5113800;28;20056;-84
2023/06/06 06:33:41;;;;;;;19.20;9.68;;;;;;;;;;5114905;28;20058;-85
2023/06/06 06:36:08;;;;;;;15.43;11.25;;;;;;;;;;5113867;28;20051;-85
2023/06/06 06:38:36;;;;;;;22.02;12.90;;;;;;;;;;5114231;28;20488;-86
2023/06/06 06:41:03;;;;;;;21.90;13.00;;;;;;;;;;5114370;28;20100;-86
2023/06/06 06:43:31;;;;;;;21.20;13.20;;;;;;;;;;5114686;28;20048;-87
2023/06/06 06:45:58;;;;;;;24.25;14.27;;;;;;;;;;5114554;28;20461;-87
2023/06/06 06:48:25;;;;;;;24.85;14.88;;;;;;;;;;5114406;28;20102;-86
2023/06/06 06:50:53;;;;;;;21.13;15.25;;;;;;;;;;5114131;28;20051;-86
2023/06/06 06:53:25;;;;;;;23.30;13.90;;;;;;;;;;5114167;28;20107;-86
2023/06/06 06:55:52;;;;;;;18.67;13.32;;;;;;;;;;5113100;28;20082;-86
2023/06/06 06:58:25;;;;;;;21.27;14.35;;;;;;;;;;5093624;28;20047;-86
2023/06/06 07:00:53;;;;;;;22.38;13.60;;;;;;;;;;5093499;28;20044;-85
2023/06/06 07:03:21;;;;;;;14.35;12.85;;;;;;;;;;5092949;28;20105;-85
2023/06/06 07:05:48;;;;;;;19.98;12.95;;;;;;;;;;5094006;28;20052;-86
2023/06/06 07:08:16;;;;;;;24.48;12.65;;;;;;;;;;5093963;28;20052;-85
2023/06/06 07:10:43;;;;;;;24.95;13.02;;;;;;;;;;5093029;28;20052;-85
2023/06/06 07:13:14;;;;;;;19.90;13.48;;;;;;;;;;5092897;28;20047;-85
2023/06/06 07:15:42;;;;;;;21.10;12.52;;;;;;;;;;5091397;28;20040;-84
2023/06/06 07:18:10;;;;;;;22.45;12.57;;;;;;;;;;5095627;28;20052;-85
2023/06/06 07:20:38;;;;;;;20.90;12.70;;;;;;;;;;5106368;28;20052;-84
2023/06/06 07:23:06;;;;;;;21.45;13.45;;;;;;;;;;5092223;28;20048;-84
2023/06/06 07:25:35;;;;;;;17.70;11.95;;;;;;;;;;5093480;28;20052;-84
2023/06/06 07:28:03;;;;;;;13.45;9.50;;;;;;;;;;5092276;28;20047;-84
2023/06/06 07:30:30;;;;;;;13.43;9.70;;;;;;;;;;5091718;28;20054;-83
2023/06/06 07:32:57;;;;;;;16.20;10.00;;;;;;;;;;5093507;28;20074;-83
2023/06/06 07:35:30;;;;;;;15.73;8.95;;;;;;;;;;5093135;28;20087;-84
2023/06/06 07:37:59;;;;;;;24.48;9.65;;;;;;;;;;5093567;28;20052;-83
2023/06/06 07:40:27;;;;;;;16.73;8.77;;;;;;;;;;5093067;28;20574;-83
2023/06/06 07:42:55;;;;;;;14.68;8.60;;;;;;;;;;5092795;28;20051;-84
2023/06/06 07:45:22;;;;;;;15.50;7.95;;;;;;;;;;5093294;28;20454;-83
2023/06/06 07:47:49;;;;;;;14.20;8.02;;;;;;;;;;5093146;28;20044;-83
2023/06/06 07:50:17;;;;;;;10.90;7.20;;;;;;;;;;5093050;28;20131;-84
2023/06/06 07:52:45;;;;;;;16.52;7.22;;;;;;;;;;5091712;28;20117;-84
2023/06/06 07:55:12;;;;;;;9.32;6.07;;;;;;;;;;5093082;28;20558;-84
2023/06/06 07:57:40;;;;;;;9.73;5.53;;;;;;;;;;5093114;28;20052;-84
2023/06/06 08:00:12;;;;;;;6.93;5.10;;;;;;;;;;5092118;28;20385;-84
2023/06/06 08:02:40;;;;;;;5.60;4.18;;;;;;;;;;5092843;28;20047;-84
2023/06/06 08:05:08;;;;;;;8.50;4.03;;;;;;;;;;5092988;28;20048;-84
2023/06/06 08:07:36;;;;;;;6.30;4.30;;;;;;;;;;5091929;28;20093;-84
2023/06/06 08:10:03;;;;;;;7.55;3.97;;;;;;;;;;5091949;28;20109;-85
2023/06/06 08:12:31;;;;;;;4.68;4.28;;;;;;;;;;5091799;28;20046;-85
2023/06/06 08:14:58;;;;;;;8.75;4.43;;;;;;;;;;5093111;28;20056;-81
2023/06/06 08:17:25;;;;;;;5.22;3.88;;;;;;;;;;5091610;28;20480;-84
2023/06/06 08:19:53;;;;;;;7.28;4.22;;;;;;;;;;5092605;28;20052;-84
2023/06/06 08:22:20;;;;;;;4.50;3.55;;;;;;;;;;5091619;28;20064;-84
2023/06/06 08:24:47;;;;;;;4.07;3.60;;;;;;;;;;5092695;28;20116;-85
2023/06/06 08:27:14;;;;;;;4.78;4.05;;;;;;;;;;5091534;28;20101;-85
2023/06/06 08:29:42;;;;;;;4.10;3.60;;;;;;;;;;5091404;28;20536;-84
2023/06/06 08:32:09;;;;;;;4.63;3.78;;;;;;;;;;5091278;28;20060;-85
2023/06/06 08:34:36;;;;;;;4.93;4.20;;;;;;;;;;5090678;28;20047;-85
2023/06/06 08:37:03;;;;;;;4.90;3.60;;;;;;;;;;5091906;28;20075;-84
2023/06/06 08:39:31;;;;;;;6.32;3.95;;;;;;;;;;5091594;28;20044;-85
2023/06/06 08:41:58;;;;;;;5.15;4.63;;;;;;;;;;5092577;28;20101;-85
2023/06/06 08:44:26;;;;;;;5.38;4.00;;;;;;;;;;5092106;28;20123;-85
2023/06/06 08:46:57;;;;;;;14.98;4.40;;;;;;;;;;5092572;28;20048;-84
2023/06/06 08:49:25;;;;;;;5.57;3.40;;;;;;;;;;5091714;28;20048;-84
2023/06/06 08:51:52;;;;;;;6.15;3.88;;;;;;;;;;5092747;28;20458;-85
2023/06/06 08:54:20;;;;;;;5.15;3.17;;;;;;;;;;5093020;28;20480;-86
2023/06/06 08:56:48;;;;;;;5.75;3.40;;;;;;;;;;5095918;28;20079;-89
2023/06/06 08:59:18;;;;;;;10.23;3.20;;;;;;;;;;5097047;28;20102;-85
2023/06/06 09:01:48;;;;;;;5.75;3.10;;;;;;;;;;5096640;28;20048;-85
2023/06/06 09:04:16;;;;;;;3.35;3.00;;;;;;;;;;5096948;28;20111;-85
2023/06/06 09:06:46;;;;;;;6.40;2.88;;;;;;;;;;5095438;28;20054;-86
2023/06/06 09:09:14;;;;;;;3.63;2.63;;;;;;;;;;5095278;28;20105;-85
2023/06/06 09:11:41;;;;;;;2.88;2.60;;;;;;;;;;5095208;28;20097;-85
2023/06/06 09:14:08;;;;;;;5.97;2.85;;;;;;;;;;5095285;28;20048;-86
2023/06/06 09:16:36;;;;;;;3.58;3.05;;;;;;;;;;5095325;28;20093;-85
2023/06/06 09:19:03;;;;;;;2.92;2.60;;;;;;;;;;5095605;28;20109;-86
2023/06/06 09:21:32;;;;;;;3.58;2.88;;;;;;;;;;5095116;28;20048;-86
2023/06/06 09:24:00;;;;;;;4.38;2.47;;;;;;;;;;5095320;28;20058;-85
2023/06/06 09:26:29;;;;;;;3.47;2.70;;;;;;;;;;5094913;28;20052;-86
2023/06/06 09:28:56;;;;;;;16.65;2.83;;;;;;;;;;5094879;28;20082;-86
2023/06/06 09:31:25;;;;;;;3.47;3.05;;;;;;;;;;5094983;28;20056;-85
2023/06/06 09:33:54;;;;;;;4.95;2.45;;;;;;;;;;5094842;28;20043;-85
2023/06/06 09:36:22;;;;;;;3.88;2.90;;;;;;;;;;5096274;28;20052;-85
2023/06/06 09:38:50;;;;;;;5.78;2.83;;;;;;;;;;5096065;28;20048;-86
2023/06/06 09:41:18;;;;;;;7.07;3.13;;;;;;;;;;5094854;28;20117;-87
2023/06/06 09:43:47;;;;;;;3.92;2.72;;;;;;;;;;5096171;28;20040;-86
2023/06/06 09:46:18;;;;;;;5.20;2.38;;;;;;;;;;5095232;28;20091;-85
2023/06/06 09:49:01;;;;;;;6.85;2.67;;;;;;;;;;5096483;28;20131;-85
2023/06/06 09:51:31;;;;;;;5.25;2.42;;;;;;;;;;5103654;28;20044;-86
2023/06/06 09:54:00;;;;;;;2.42;2.22;;;;;;;;;;5095252;28;20048;-84
2023/06/06 09:56:30;;;;;;;2.67;2.35;;;;;;;;;;5094768;28;20443;-86
2023/06/06 09:58:58;;;;;;;3.33;2.50;;;;;;;;;;5095310;28;20094;-85
2023/06/06 10:01:29;;;;;;;3.55;2.13;;;;;;;;;;5094931;28;20089;-87
2023/06/06 10:03:57;;;;;;;2.95;2.70;;;;;;;;;;5095046;28;20055;-86
2023/06/06 10:06:26;;;;;;;2.05;1.95;;;;;;;;;;5094687;28;20056;-87
2023/06/06 10:08:54;;;;;;;2.95;2.13;;;;;;;;;;5096278;28;20489;-85
2023/06/06 10:11:22;;;;;;;2.47;2.28;;;;;;;;;;5094208;28;20506;-86
2023/06/06 10:13:49;;;;;;;4.75;2.55;;;;;;;;;;5094313;28;20048;-85
2023/06/06 10:16:18;;;;;;;4.30;2.10;;;;;;;;;;5094862;28;20044;-84
2023/06/06 10:18:46;;;;;;;2.95;2.63;;;;;;;;;;5094259;28;20044;-85
2023/06/06 10:21:17;;;;;;;3.10;2.30;;;;;;;;;;5094219;28;20067;-87
2023/06/06 10:23:45;;;;;;;2.95;2.75;;;;;;;;;;5095502;28;20048;-85
2023/06/06 10:26:24;;;;;;;3.45;2.78;;;;;;;;;;5094107;28;20052;-86
2023/06/06 10:28:58;;;;;;;4.10;3.25;;;;;;;;;;5094624;28;20059;-85
2023/06/06 10:31:47;;;;;;;4.30;3.88;;;;;;;;;;5094534;28;20098;-86
2023/06/06 10:34:18;;;;;;;6.47;4.07;;;;;;;;;;5093937;28;20048;-88
2023/06/06 10:36:48;;;;;;;6.65;3.90;;;;;;;;;;5094310;28;20584;-85
2023/06/06 10:39:19;;;;;;;7.47;4.90;;;;;;;;;;5094140;28;20047;-86
2023/06/06 10:41:51;;;;;;;5.45;4.68;;;;;;;;;;5095293;28;20463;-89
2023/06/06 10:44:25;;;;;;;5.90;5.38;;;;;;;;;;5094132;28;20097;-85
2023/06/06 10:47:12;;;;;;;9.63;5.32;;;;;;;;;;5094240;28;20072;-88
2023/06/06 10:49:43;;;;;;;7.03;5.78;;;;;;;;;;5094973;28;20056;-89
2023/06/06 10:52:13;;;;;;;6.70;5.15;;;;;;;;;;5093490;28;20044;-86
2023/06/06 10:54:41;;;;;;;6.88;5.47;;;;;;;;;;5094023;28;20079;-86
2023/06/06 10:57:16;;;;;;;5.30;4.88;;;;;;;;;;5093859;28;20142;-85
2023/06/06 10:59:47;;;;;;;5.63;5.13;;;;;;;;;;5093604;28;20130;-85
2023/06/06 11:02:32;;;;;;;7.05;5.03;;;;;;;;;;5093645;28;20545;-90
2023/06/06 11:05:00;;;;;;;13.07;4.45;;;;;;;;;;5094656;28;20093;-88
2023/06/06 11:07:31;;;;;;;6.40;4.93;;;;;;;;;;5108949;28;20046;-88
2023/06/06 11:09:59;;;;;;;7.97;4.78;;;;;;;;;;5099574;28;20056;-92
2023/06/06 11:12:30;;;;;;;6.20;5.03;;;;;;;;;;5094164;28;20090;-95
2023/06/06 11:14:58;;;;;;;15.63;5.93;;;;;;;;;;5096278;28;20082;-91
2023/06/06 11:17:27;;;;;;;12.68;5.70;;;;;;;;;;5096003;28;20060;-92
2023/06/06 11:19:55;;;;;;;13.40;5.65;;;;;;;;;;5095484;28;20382;-91
2023/06/06 11:22:26;;;;;;;11.88;6.40;;;;;;;;;;5093837;28;20117;-93
2023/06/06 11:24:56;;;;;;;13.05;6.93;;;;;;;;;;5094525;28;20554;-92
2023/06/06 11:27:23;;;;;;;5.47;5.03;;;;;;;;;;5093421;28;20051;-90
2023/06/06 11:29:53;;;;;;;6.28;5.00;;;;;;;;;;5093386;28;20461;-90
2023/06/06 11:32:20;;;;;;;5.90;5.18;;;;;;;;;;5093215;28;20059;-90
2023/06/06 11:34:48;;;;;;;5.95;4.90;;;;;;;;;;5093800;28;20048;-89
2023/06/06 11:37:15;;;;;;;7.18;5.47;;;;;;;;;;5093385;28;20055;-89
2023/06/06 11:39:45;;;;;;;7.18;5.35;;;;;;;;;;5093151;28;20083;-89
2023/06/06 11:42:16;;;;;;;9.57;5.90;;;;;;;;;;5093062;28;20097;-90
2023/06/06 11:44:44;;;;;;;8.68;6.35;;;;;;;;;;5093167;28;20469;-88
2023/06/06 11:47:11;;;;;;;63.45;35.05;;;;;;;;;;5094316;28;20055;-88
2023/06/06 11:49:43;;;;;;;44.17;23.17;;;;;;;;;;5093023;28;20055;-88
2023/06/06 11:52:10;;;;;;;466.23;214.90;;;;;;;;;;5094038;28;20103;-88
2023/06/06 11:54:38;;;;;;;82.78;35.15;;;;;;;;;;5092771;28;20101;-88
2023/06/06 11:57:08;;;;;;;162.02;53.08;;;;;;;;;;5092952;28;20048;-87
2023/06/06 11:59:35;;;;;;;72.78;25.23;;;;;;;;;;5092581;28;20205;-87
2023/06/06 12:02:03;;;;;;;93.65;33.60;;;;;;;;;;5092517;28;20458;-87
2023/06/06 12:04:30;;;;;;;197.63;67.93;;;;;;;;;;5092511;28;20553;-88
2023/06/06 12:07:03;;;;;;;10.95;5.63;;;;;;;;;;5092675;28;20056;-87
2023/06/06 12:09:32;;;;;;;9.63;4.95;;;;;;;;;;5092390;28;20043;-86
2023/06/06 12:12:00;;;;;;;47.90;19.23;;;;;;;;;;5092219;28;20055;-86
2023/06/06 12:14:29;;;;;;;36.90;16.35;;;;;;;;;;5092024;28;20048;-86
2023/06/06 12:17:10;;;;;;;8.65;5.90;;;;;;;;;;5092344;28;20101;-87
2023/06/06 12:19:37;;;;;;;7.50;5.22;;;;;;;;;;5091047;28;20048;-86
2023/06/06 12:22:05;;;;;;;6.40;4.82;;;;;;;;;;5094064;28;20081;-87
2023/06/06 12:24:33;;;;;;;9.77;6.75;;;;;;;;;;5109508;28;20503;-87
2023/06/06 12:27:04;;;;;;;11.20;5.93;;;;;;;;;;5093701;28;20403;-87
2023/06/06 12:29:36;;;;;;;50.15;19.90;;;;;;;;;;5097988;28;20427;-87
2023/06/06 12:32:13;;;;;;;15.35;8.00;;;;;;;;;;5099862;28;20106;-88
2023/06/06 12:34:44;;;;;;;60.28;26.40;;;;;;;;;;5099331;28;20048;-88
2023/06/06 12:37:12;;;;;;;220.13;120.30;;;;;;;;;;5099261;28;20066;-87
2023/06/06 12:39:40;;;;;;;35.35;21.13;;;;;;;;;;5100135;28;20047;-88
2023/06/06 12:42:14;;;;;;;12.45;7.90;;;;;;;;;;5099236;28;20048;-88
2023/06/06 12:44:42;;;;;;;8.88;8.02;;;;;;;;;;5100201;28;20664;-90
2023/06/06 12:47:11;;;;;;;9.43;6.60;;;;;;;;;;5099503;28;20117;-90
2023/06/06 12:49:39;;;;;;;7.35;5.80;;;;;;;;;;5099286;28;20139;-92
2023/06/06 12:52:07;;;;;;;6.63;6.03;;;;;;;;;;5099312;28;20056;-91
2023/06/06 12:54:39;;;;;;;6.53;5.82;;;;;;;;;;5099253;28;20047;-91
2023/06/06 12:57:12;;;;;;;8.93;5.90;;;;;;;;;;5098875;28;20051;-90
2023/06/06 12:59:41;;;;;;;11.50;5.05;;;;;;;;;;5099203;28;20056;-89
2023/06/06 13:02:09;;;;;;;15.95;6.55;;;;;;;;;;5099181;28;20077;-88
2023/06/06 13:04:38;;;;;;;7.07;5.05;;;;;;;;;;5099338;28;20044;-91
2023/06/06 13:07:09;;;;;;;5.93;4.38;;;;;;;;;;5098663;28;20466;-87
2023/06/06 13:09:39;;;;;;;;;;;;;;;;;;5099695;28;20058;-88
2023/06/06 13:12:07;;;;;;;5.68;5.18;;;;;;;;;;5098374;28;19930;-88
2023/06/06 13:14:38;;;;;;;7.00;5.38;;;;;;;;;;5098933;28;20048;-87
2023/06/06 13:17:06;;;;;;;11.60;5.90;;;;;;;;;;5115472;28;20062;-88
2023/06/06 13:19:36;;;;;;;18.58;7.05;;;;;;;;;;5098796;28;20093;-90
2023/06/06 13:22:04;;;;;;;7.05;5.47;;;;;;;;;;5098808;28;20056;-87
2023/06/06 13:24:31;;;;;;;8.43;6.43;;;;;;;;;;5098616;28;20040;-87
2023/06/06 13:26:58;;;;;;;5.85;5.35;;;;;;;;;;5098670;28;20458;-87
2023/06/06 13:29:26;;;;;;;9.18;5.13;;;;;;;;;;5098571;28;20048;-86
2023/06/06 13:31:56;;;;;;;7.10;4.80;;;;;;;;;;5097917;28;20060;-86
2023/06/06 13:34:24;;;;;;;8.27;5.22;;;;;;;;;;5098195;28;20040;-86
2023/06/06 13:36:51;;;;;;;7.95;4.47;;;;;;;;;;5099568;28;20052;-86
2023/06/06 13:39:19;;;;;;;5.82;4.72;;;;;;;;;;5101490;28;20530;-86
2023/06/06 13:41:47;;;;;;;10.27;4.65;;;;;;;;;;5097244;28;20055;-86
2023/06/06 13:44:21;;;;;;;5.45;4.53;;;;;;;;;;5094952;28;20044;-85
2023/06/06 13:46:49;;;;;;;4.90;4.50;;;;;;;;;;5094592;28;20097;-85
2023/06/06 13:49:27;;;;;;;6.55;4.32;;;;;;;;;;5095067;28;20052;-85
2023/06/06 13:51:55;;;;;;;4.82;4.43;;;;;;;;;;5094572;28;20052;-85
2023/06/06 13:54:23;;;;;;;5.47;4.35;;;;;;;;;;5094877;28;20052;-85
2023/06/06 13:56:54;;;;;;;7.35;4.28;;;;;;;;;;5094472;28;20117;-85
2023/06/06 13:59:22;;;;;;;7.30;4.38;;;;;;;;;;5094168;28;20101;-85
2023/06/06 14:01:51;;;;;;;6.35;3.92;;;;;;;;;;5094091;28;20083;-85
2023/06/06 14:04:19;;;;;;;4.53;4.13;;;;;;;;;;5095403;28;20397;-85
2023/06/06 14:06:50;;;;;;;5.35;3.80;;;;;;;;;;5095561;28;20098;-85
2023/06/06 14:09:20;;;;;;;5.03;4.38;;;;;;;;;;5095455;28;20117;-85
2023/06/06 14:11:50;;;;;;;4.53;4.18;;;;;;;;;;5094033;28;20140;-84
2023/06/06 14:14:17;;;;;;;4.30;3.90;;;;;;;;;;5095246;28;20044;-85
2023/06/06 14:16:45;;;;;;;3.78;3.47;;;;;;;;;;5095122;28;20059;-85
2023/06/06 14:19:24;;;;;;;4.53;4.07;;;;;;;;;;5094093;28;20127;-84
2023/06/06 14:22:37;;;;;;;4.70;3.90;;;;;;;;;;5093952;28;20066;-84
2023/06/06 14:24:44;;;;;;;5.35;4.30;;;;;;;;;;5091609;28;20040;-84
2023/06/06 14:27:11;;;;;;;5.55;4.18;;;;;;;;;;5093777;28;20105;-84
2023/06/06 14:29:39;;;;;;;4.20;3.90;;;;;;;;;;5094820;28;20452;-84
2023/06/06 14:32:11;;;;;;;6.78;4.20;;;;;;;;;;5093638;28;20048;-84
2023/06/06 14:34:39;;;;;;;7.20;4.32;;;;;;;;;;5093511;28;20048;-84
2023/06/06 14:37:06;;;;;;;4.78;4.25;;;;;;;;;;5093327;28;20495;-84
2023/06/06 14:39:34;;;;;;;4.32;3.58;;;;;;;;;;5094510;28;20052;-84
2023/06/06 14:42:01;;;;;;;6.22;4.60;;;;;;;;;;5093310;28;20044;-85
2023/06/06 14:44:30;;;;;;;6.35;4.65;;;;;;;;;;5093397;28;20048;-85